sensor_id;sensor_type;location;lat;lon;timestamp;temperature;humidity
13229;DHT22;6680;53.220;10.402;2023-04-01T00:01:26;10.10;99.90
13229;DHT22;6680;53.220;10.402;2023-04-01T00:03:52;10.20;99.90
13229;DHT22;6680;53.220;10.402;2023-04-01T00:06:19;10.20;99.90
13229;DHT22;6680;53.220;10.402;2023-04-01T00:08:46;10.10;99.90
13229;DHT22;6680;53.220;10.402;2023-04-01T00:11:15;10.20;99.90
13229;DHT22;6680;53.220;10.402;2023-04-01T00:13:43;10.20;99.90
13229;DHT22;6680;53.220;10.402;2023-04-01T00:16:10;10.30;99.90
13229;DHT22;6680;53.220;10.402;2023-04-01T00:18:37;10.00;99.90
13229;DHT22;6680;53.220;10.402;2023-04-01T00:21:04;10.30;99.90
13229;DHT22;6680;53.220;10.402;2023-04-01T00:23:30;10.30;99.90
13229;DHT22;6680;53.220;10.402;2023-04-01T00:25:59;10.30;99.90
13229;DHT22;6680;53.220;10.402;2023-04-01T00:28:28;10.30;99.90
13229;DHT22;6680;53.220;10.402;2023-04-01T00:30:55;10.20;99.90
13229;DHT22;6680;53.220;10.402;2023-04-01T00:33:22;10.20;99.90
13229;DHT22;6680;53.220;10.402;2023-04-01T00:35:48;10.20;99.90
13229;DHT22;6680;53.220;10.402;2023-04-01T00:38:15;10.20;99.90
13229;DHT22;6680;53.220;10.402;2023-04-01T00:40:45;10.20;99.90
13229;DHT22;6680;53.220;10.402;2023-04-01T00:43:14;10.20;99.90
13229;DHT22;6680;53.220;10.402;2023-04-01T00:45:45;10.20;99.90
13229;DHT22;6680;53.220;10.402;2023-04-01T00:48:16;10.20;99.90
13229;DHT22;6680;53.220;10.402;2023-04-01T00:50:46;10.10;99.90
13229;DHT22;6680;53.220;10.402;2023-04-01T00:53:16;10.10;99.90
13229;DHT22;6680;53.220;10.402;2023-04-01T00:55:49;10.10;99.90
13229;DHT22;6680;53.220;10.402;2023-04-01T00:58:18;10.10;99.90
13229;DHT22;6680;53.220;10.402;2023-04-01T01:00:49;10.00;99.90
13229;DHT22;6680;53.220;10.402;2023-04-01T01:03:17;10.00;99.90
13229;DHT22;6680;53.220;10.402;2023-04-01T01:06:07;10.00;99.90
13229;DHT22;6680;53.220;10.402;2023-04-01T01:08:47;9.70;99.90
13229;DHT22;6680;53.220;10.402;2023-04-01T01:11:19;9.90;99.90
13229;DHT22;6680;53.220;10.402;2023-04-01T01:13:53;9.90;99.90
13229;DHT22;6680;53.220;10.402;2023-04-01T01:16:26;9.80;99.90
13229;DHT22;6680;53.220;10.402;2023-04-01T01:18:59;9.80;99.90
13229;DHT22;6680;53.220;10.402;2023-04-01T01:24:40;9.80;99.90
13229;DHT22;6680;53.220;10.402;2023-04-01T01:27:10;9.80;99.90
13229;DHT22;6680;53.220;10.402;2023-04-01T01:29:50;9.80;99.90
13229;DHT22;6680;53.220;10.402;2023-04-01T01:32:52;9.80;99.90
13229;DHT22;6680;53.220;10.402;2023-04-01T01:35:26;9.90;99.90
13229;DHT22;6680;53.220;10.402;2023-04-01T01:37:56;9.90;99.90
13229;DHT22;6680;53.220;10.402;2023-04-01T01:40:26;9.90;99.90
13229;DHT22;6680;53.220;10.402;2023-04-01T01:42:56;9.90;99.90
13229;DHT22;6680;53.220;10.402;2023-04-01T01:45:26;9.90;99.90
13229;DHT22;6680;53.220;10.402;2023-04-01T01:47:55;9.90;99.90
13229;DHT22;6680;53.220;10.402;2023-04-01T01:50:25;9.90;99.90
13229;DHT22;6680;53.220;10.402;2023-04-01T01:53:00;10.00;99.90
13229;DHT22;6680;53.220;10.402;2023-04-01T01:55:29;10.00;99.90
13229;DHT22;6680;53.220;10.402;2023-04-01T01:58:00;10.00;99.90
13229;DHT22;6680;53.220;10.402;2023-04-01T02:00:28;10.00;99.90
13229;DHT22;6680;53.220;10.402;2023-04-01T02:02:56;10.10;99.90
13229;DHT22;6680;53.220;10.402;2023-04-01T02:05:26;10.00;99.90
13229;DHT22;6680;53.220;10.402;2023-04-01T02:08:00;10.10;99.90
13229;DHT22;6680;53.220;10.402;2023-04-01T02:10:29;10.10;99.90
13229;DHT22;6680;53.220;10.402;2023-04-01T02:13:01;10.10;99.90
13229;DHT22;6680;53.220;10.402;2023-04-01T02:15:34;10.00;99.90
13229;DHT22;6680;53.220;10.402;2023-04-01T02:18:04;10.00;99.90
13229;DHT22;6680;53.220;10.402;2023-04-01T02:20:32;9.90;99.90
13229;DHT22;6680;53.220;10.402;2023-04-01T02:22:59;10.00;99.90
13229;DHT22;6680;53.220;10.402;2023-04-01T02:25:28;10.00;99.90
13229;DHT22;6680;53.220;10.402;2023-04-01T02:27:57;10.00;99.90
13229;DHT22;6680;53.220;10.402;2023-04-01T02:30:25;10.00;99.90
13229;DHT22;6680;53.220;10.402;2023-04-01T02:32:53;10.00;99.90
13229;DHT22;6680;53.220;10.402;2023-04-01T02:35:21;9.90;99.90
13229;DHT22;6680;53.220;10.402;2023-04-01T02:37:50;9.90;99.90
13229;DHT22;6680;53.220;10.402;2023-04-01T02:40:18;10.00;99.90
13229;DHT22;6680;53.220;10.402;2023-04-01T02:42:45;10.00;99.90
13229;DHT22;6680;53.220;10.402;2023-04-01T02:45:13;10.00;99.90
13229;DHT22;6680;53.220;10.402;2023-04-01T02:47:40;10.00;99.90
13229;DHT22;6680;53.220;10.402;2023-04-01T02:50:08;10.00;99.90
13229;DHT22;6680;53.220;10.402;2023-04-01T02:52:35;10.00;99.90
13229;DHT22;6680;53.220;10.402;2023-04-01T02:55:05;10.00;99.90
13229;DHT22;6680;53.220;10.402;2023-04-01T02:57:32;10.00;99.90
13229;DHT22;6680;53.220;10.402;2023-04-01T02:59:59;10.00;99.90
13229;DHT22;6680;53.220;10.402;2023-04-01T03:02:25;9.80;99.90
13229;DHT22;6680;53.220;10.402;2023-04-01T03:04:52;10.00;99.90
13229;DHT22;6680;53.220;10.402;2023-04-01T03:07:19;10.00;99.90
13229;DHT22;6680;53.220;10.402;2023-04-01T03:09:45;10.00;99.90
13229;DHT22;6680;53.220;10.402;2023-04-01T03:12:13;10.00;99.90
13229;DHT22;6680;53.220;10.402;2023-04-01T03:14:40;10.00;99.90
13229;DHT22;6680;53.220;10.402;2023-04-01T03:17:07;10.00;99.90
13229;DHT22;6680;53.220;10.402;2023-04-01T03:19:34;10.00;99.90
13229;DHT22;6680;53.220;10.402;2023-04-01T03:22:00;10.00;99.90
13229;DHT22;6680;53.220;10.402;2023-04-01T03:24:27;10.00;99.90
13229;DHT22;6680;53.220;10.402;2023-04-01T03:26:54;10.00;99.90
13229;DHT22;6680;53.220;10.402;2023-04-01T03:29:22;10.10;99.90
13229;DHT22;6680;53.220;10.402;2023-04-01T03:31:49;10.10;99.90
13229;DHT22;6680;53.220;10.402;2023-04-01T03:34:15;10.00;99.90
13229;DHT22;6680;53.220;10.402;2023-04-01T03:36:42;10.00;99.90
13229;DHT22;6680;53.220;10.402;2023-04-01T03:39:09;10.00;99.90
13229;DHT22;6680;53.220;10.402;2023-04-01T03:41:36;10.00;99.90
13229;DHT22;6680;53.220;10.402;2023-04-01T03:44:03;10.00;99.90
13229;DHT22;6680;53.220;10.402;2023-04-01T03:46:31;10.10;99.90
13229;DHT22;6680;53.220;10.402;2023-04-01T03:48:58;10.10;99.90
13229;DHT22;6680;53.220;10.402;2023-04-01T03:51:25;10.00;99.90
13229;DHT22;6680;53.220;10.402;2023-04-01T03:53:52;10.00;99.90
13229;DHT22;6680;53.220;10.402;2023-04-01T03:56:19;10.00;99.90
13229;DHT22;6680;53.220;10.402;2023-04-01T03:58:45;10.00;99.90
13229;DHT22;6680;53.220;10.402;2023-04-01T04:01:17;10.10;99.90
13229;DHT22;6680;53.220;10.402;2023-04-01T04:03:45;10.10;99.90
13229;DHT22;6680;53.220;10.402;2023-04-01T04:06:14;10.10;99.90
13229;DHT22;6680;53.220;10.402;2023-04-01T04:08:41;10.30;99.90
13229;DHT22;6680;53.220;10.402;2023-04-01T04:11:08;10.10;99.90
13229;DHT22;6680;53.220;10.402;2023-04-01T04:13:35;10.10;99.90
13229;DHT22;6680;53.220;10.402;2023-04-01T04:16:02;10.10;99.90
13229;DHT22;6680;53.220;10.402;2023-04-01T04:18:29;10.00;99.90
13229;DHT22;6680;53.220;10.402;2023-04-01T04:20:57;10.10;99.90
13229;DHT22;6680;53.220;10.402;2023-04-01T04:23:24;10.10;99.90
13229;DHT22;6680;53.220;10.402;2023-04-01T04:25:55;10.10;99.90
13229;DHT22;6680;53.220;10.402;2023-04-01T04:28:23;10.10;99.90
13229;DHT22;6680;53.220;10.402;2023-04-01T04:30:51;10.10;99.90
13229;DHT22;6680;53.220;10.402;2023-04-01T04:33:18;10.10;99.90
13229;DHT22;6680;53.220;10.402;2023-04-01T04:35:45;10.10;99.90
13229;DHT22;6680;53.220;10.402;2023-04-01T04:38:13;10.00;99.90
13229;DHT22;6680;53.220;10.402;2023-04-01T04:40:41;10.00;99.90
13229;DHT22;6680;53.220;10.402;2023-04-01T04:43:10;10.00;99.90
13229;DHT22;6680;53.220;10.402;2023-04-01T04:45:37;10.00;99.90
13229;DHT22;6680;53.220;10.402;2023-04-01T04:48:04;9.90;99.90
13229;DHT22;6680;53.220;10.402;2023-04-01T04:50:31;10.00;99.90
13229;DHT22;6680;53.220;10.402;2023-04-01T04:52:58;9.90;99.90
13229;DHT22;6680;53.220;10.402;2023-04-01T04:55:26;9.90;99.90
13229;DHT22;6680;53.220;10.402;2023-04-01T04:57:53;9.90;99.90
13229;DHT22;6680;53.220;10.402;2023-04-01T05:00:20;9.90;99.90
13229;DHT22;6680;53.220;10.402;2023-04-01T05:02:47;9.90;99.90
13229;DHT22;6680;53.220;10.402;2023-04-01T05:05:14;9.90;99.90
13229;DHT22;6680;53.220;10.402;2023-04-01T05:07:40;9.90;99.90
13229;DHT22;6680;53.220;10.402;2023-04-01T05:10:08;9.90;99.90
13229;DHT22;6680;53.220;10.402;2023-04-01T05:12:36;9.90;99.90
13229;DHT22;6680;53.220;10.402;2023-04-01T05:15:06;9.90;99.90
13229;DHT22;6680;53.220;10.402;2023-04-01T05:17:34;9.90;99.90
13229;DHT22;6680;53.220;10.402;2023-04-01T05:20:01;9.90;99.90
13229;DHT22;6680;53.220;10.402;2023-04-01T05:22:27;10.00;99.90
13229;DHT22;6680;53.220;10.402;2023-04-01T05:24:54;10.00;99.90
13229;DHT22;6680;53.220;10.402;2023-04-01T05:27:22;10.00;99.90
13229;DHT22;6680;53.220;10.402;2023-04-01T05:29:50;10.00;99.90
13229;DHT22;6680;53.220;10.402;2023-04-01T05:32:17;10.00;99.90
13229;DHT22;6680;53.220;10.402;2023-04-01T05:34:44;10.00;99.90
13229;DHT22;6680;53.220;10.402;2023-04-01T05:37:10;10.10;99.90
13229;DHT22;6680;53.220;10.402;2023-04-01T05:39:37;10.10;99.90
13229;DHT22;6680;53.220;10.402;2023-04-01T05:42:05;10.10;99.90
13229;DHT22;6680;53.220;10.402;2023-04-01T05:44:32;10.20;99.90
13229;DHT22;6680;53.220;10.402;2023-04-01T05:47:01;10.10;99.90
13229;DHT22;6680;53.220;10.402;2023-04-01T05:49:28;10.20;99.90
13229;DHT22;6680;53.220;10.402;2023-04-01T05:51:54;10.20;99.90
13229;DHT22;6680;53.220;10.402;2023-04-01T05:54:21;10.20;99.90
13229;DHT22;6680;53.220;10.402;2023-04-01T05:56:48;10.30;99.90
13229;DHT22;6680;53.220;10.402;2023-04-01T05:59:15;10.30;99.90
13229;DHT22;6680;53.220;10.402;2023-04-01T06:01:41;10.40;99.90
13229;DHT22;6680;53.220;10.402;2023-04-01T06:04:13;10.40;99.90
13229;DHT22;6680;53.220;10.402;2023-04-01T06:06:40;10.50;99.90
13229;DHT22;6680;53.220;10.402;2023-04-01T06:09:13;10.50;99.90
13229;DHT22;6680;53.220;10.402;2023-04-01T06:11:51;10.60;99.90
13229;DHT22;6680;53.220;10.402;2023-04-01T06:14:29;10.70;99.90
13229;DHT22;6680;53.220;10.402;2023-04-01T06:17:12;10.70;99.90
13229;DHT22;6680;53.220;10.402;2023-04-01T06:19:50;10.70;99.90
13229;DHT22;6680;53.220;10.402;2023-04-01T06:22:37;10.70;99.90
13229;DHT22;6680;53.220;10.402;2023-04-01T06:25:23;10.80;99.90
13229;DHT22;6680;53.220;10.402;2023-04-01T06:28:02;10.80;99.90
13229;DHT22;6680;53.220;10.402;2023-04-01T06:30:40;10.80;99.90
13229;DHT22;6680;53.220;10.402;2023-04-01T06:33:24;10.80;99.90
13229;DHT22;6680;53.220;10.402;2023-04-01T06:42:14;10.80;99.90
13229;DHT22;6680;53.220;10.402;2023-04-01T06:44:53;10.80;99.90
13229;DHT22;6680;53.220;10.402;2023-04-01T06:47:33;10.90;99.90
13229;DHT22;6680;53.220;10.402;2023-04-01T06:50:07;10.80;99.90
13229;DHT22;6680;53.220;10.402;2023-04-01T06:52:43;10.90;99.90
13229;DHT22;6680;53.220;10.402;2023-04-01T06:55:27;10.80;99.90
13229;DHT22;6680;53.220;10.402;2023-04-01T06:57:59;10.80;99.90
13229;DHT22;6680;53.220;10.402;2023-04-01T07:00:30;10.80;99.90
13229;DHT22;6680;53.220;10.402;2023-04-01T07:03:05;10.70;99.90
13229;DHT22;6680;53.220;10.402;2023-04-01T07:05:33;10.60;99.90
13229;DHT22;6680;53.220;10.402;2023-04-01T07:08:03;10.50;99.90
13229;DHT22;6680;53.220;10.402;2023-04-01T07:10:38;10.40;99.90
13229;DHT22;6680;53.220;10.402;2023-04-01T07:13:14;10.20;99.90
13229;DHT22;6680;53.220;10.402;2023-04-01T07:15:43;10.00;99.90
13229;DHT22;6680;53.220;10.402;2023-04-01T07:18:15;9.70;99.90
13229;DHT22;6680;53.220;10.402;2023-04-01T07:20:44;9.70;99.90
13229;DHT22;6680;53.220;10.402;2023-04-01T07:23:20;9.60;99.90
13229;DHT22;6680;53.220;10.402;2023-04-01T07:25:52;9.40;99.90
13229;DHT22;6680;53.220;10.402;2023-04-01T07:28:20;9.30;99.90
13229;DHT22;6680;53.220;10.402;2023-04-01T07:30:58;9.20;99.90
13229;DHT22;6680;53.220;10.402;2023-04-01T07:33:33;9.10;99.90
13229;DHT22;6680;53.220;10.402;2023-04-01T07:36:07;9.00;99.90
13229;DHT22;6680;53.220;10.402;2023-04-01T07:38:42;8.90;99.90
13229;DHT22;6680;53.220;10.402;2023-04-01T07:41:23;8.90;99.90
13229;DHT22;6680;53.220;10.402;2023-04-01T07:44:04;8.80;99.90
13229;DHT22;6680;53.220;10.402;2023-04-01T07:46:45;8.70;99.90
13229;DHT22;6680;53.220;10.402;2023-04-01T07:49:18;8.70;99.90
13229;DHT22;6680;53.220;10.402;2023-04-01T07:51:54;8.60;99.90
13229;DHT22;6680;53.220;10.402;2023-04-01T07:54:29;8.50;99.90
13229;DHT22;6680;53.220;10.402;2023-04-01T07:57:01;8.50;99.90
13229;DHT22;6680;53.220;10.402;2023-04-01T07:59:37;8.40;99.90
13229;DHT22;6680;53.220;10.402;2023-04-01T08:02:19;8.40;99.90
13229;DHT22;6680;53.220;10.402;2023-04-01T08:04:58;8.30;99.90
13229;DHT22;6680;53.220;10.402;2023-04-01T08:07:32;8.30;99.90
13229;DHT22;6680;53.220;10.402;2023-04-01T08:10:09;8.30;99.90
13229;DHT22;6680;53.220;10.402;2023-04-01T08:12:45;8.20;99.90
13229;DHT22;6680;53.220;10.402;2023-04-01T08:15:21;8.20;99.90
13229;DHT22;6680;53.220;10.402;2023-04-01T08:17:59;8.10;99.90
13229;DHT22;6680;53.220;10.402;2023-04-01T08:20:34;8.10;99.90
13229;DHT22;6680;53.220;10.402;2023-04-01T08:23:07;8.00;99.90
13229;DHT22;6680;53.220;10.402;2023-04-01T08:25:39;8.10;99.90
13229;DHT22;6680;53.220;10.402;2023-04-01T08:28:15;8.10;99.90
13229;DHT22;6680;53.220;10.402;2023-04-01T08:30:47;8.10;99.90
13229;DHT22;6680;53.220;10.402;2023-04-01T08:33:19;8.00;99.90
13229;DHT22;6680;53.220;10.402;2023-04-01T08:35:52;8.00;99.90
13229;DHT22;6680;53.220;10.402;2023-04-01T08:38:24;8.00;99.90
13229;DHT22;6680;53.220;10.402;2023-04-01T08:41:00;8.00;99.90
13229;DHT22;6680;53.220;10.402;2023-04-01T08:47:04;8.00;99.90
13229;DHT22;6680;53.220;10.402;2023-04-01T08:50:01;8.00;99.90
13229;DHT22;6680;53.220;10.402;2023-04-01T08:52:35;7.90;99.90
13229;DHT22;6680;53.220;10.402;2023-04-01T08:55:31;7.90;99.90
13229;DHT22;6680;53.220;10.402;2023-04-01T08:58:17;8.00;99.90
13229;DHT22;6680;53.220;10.402;2023-04-01T09:00:53;7.90;99.90
13229;DHT22;6680;53.220;10.402;2023-04-01T09:03:36;7.90;99.90
13229;DHT22;6680;53.220;10.402;2023-04-01T09:06:24;7.90;99.90
13229;DHT22;6680;53.220;10.402;2023-04-01T09:09:06;7.90;99.90
13229;DHT22;6680;53.220;10.402;2023-04-01T09:11:44;7.80;99.90
13229;DHT22;6680;53.220;10.402;2023-04-01T09:17:48;7.80;99.90
13229;DHT22;6680;53.220;10.402;2023-04-01T09:23:27;7.70;99.90
13229;DHT22;6680;53.220;10.402;2023-04-01T09:26:10;7.80;99.90
13229;DHT22;6680;53.220;10.402;2023-04-01T09:28:45;7.80;99.90
13229;DHT22;6680;53.220;10.402;2023-04-01T09:31:29;7.80;99.90
13229;DHT22;6680;53.220;10.402;2023-04-01T09:34:21;7.80;99.90
13229;DHT22;6680;53.220;10.402;2023-04-01T09:37:01;7.80;99.90
13229;DHT22;6680;53.220;10.402;2023-04-01T09:39:36;7.80;99.90
13229;DHT22;6680;53.220;10.402;2023-04-01T09:42:15;7.80;99.90
13229;DHT22;6680;53.220;10.402;2023-04-01T09:44:50;7.70;99.90
13229;DHT22;6680;53.220;10.402;2023-04-01T09:50:37;7.80;99.90
13229;DHT22;6680;53.220;10.402;2023-04-01T09:53:24;7.90;99.90
13229;DHT22;6680;53.220;10.402;2023-04-01T10:03:12;7.90;99.90
13229;DHT22;6680;53.220;10.402;2023-04-01T10:12:23;7.60;99.90
13229;DHT22;6680;53.220;10.402;2023-04-01T10:15:22;7.60;99.90
13229;DHT22;6680;53.220;10.402;2023-04-01T10:18:11;7.60;99.90
13229;DHT22;6680;53.220;10.402;2023-04-01T10:24:12;7.70;99.90
13229;DHT22;6680;53.220;10.402;2023-04-01T10:26:55;7.60;99.90
13229;DHT22;6680;53.220;10.402;2023-04-01T10:29:50;7.60;99.90
13229;DHT22;6680;53.220;10.402;2023-04-01T10:35:49;7.70;99.90
13229;DHT22;6680;53.220;10.402;2023-04-01T10:38:46;7.70;99.90
13229;DHT22;6680;53.220;10.402;2023-04-01T10:44:56;7.80;99.90
13229;DHT22;6680;53.220;10.402;2023-04-01T10:47:48;7.90;99.90
13229;DHT22;6680;53.220;10.402;2023-04-01T10:50:25;8.00;99.90
13229;DHT22;6680;53.220;10.402;2023-04-01T10:53:15;7.90;99.90
13229;DHT22;6680;53.220;10.402;2023-04-01T10:56:27;7.90;99.90
13229;DHT22;6680;53.220;10.402;2023-04-01T10:59:28;7.90;99.90
13229;DHT22;6680;53.220;10.402;2023-04-01T11:08:50;7.80;99.90
13229;DHT22;6680;53.220;10.402;2023-04-01T11:11:55;7.80;99.90
13229;DHT22;6680;53.220;10.402;2023-04-01T11:21:18;7.70;99.90
13229;DHT22;6680;53.220;10.402;2023-04-01T11:23:58;7.80;99.90
13229;DHT22;6680;53.220;10.402;2023-04-01T11:26:33;7.70;99.90
13229;DHT22;6680;53.220;10.402;2023-04-01T11:32:42;7.80;99.90
13229;DHT22;6680;53.220;10.402;2023-04-01T11:35:38;8.00;99.90
13229;DHT22;6680;53.220;10.402;2023-04-01T11:38:21;8.00;99.90
13229;DHT22;6680;53.220;10.402;2023-04-01T11:40:54;8.10;99.90
13229;DHT22;6680;53.220;10.402;2023-04-01T11:43:29;8.10;99.90
13229;DHT22;6680;53.220;10.402;2023-04-01T11:46:02;8.10;99.90
13229;DHT22;6680;53.220;10.402;2023-04-01T11:48:42;8.00;99.90
13229;DHT22;6680;53.220;10.402;2023-04-01T11:51:33;7.80;99.90
13229;DHT22;6680;53.220;10.402;2023-04-01T11:54:10;7.70;99.90
13229;DHT22;6680;53.220;10.402;2023-04-01T11:56:55;7.70;99.90
13229;DHT22;6680;53.220;10.402;2023-04-01T11:59:44;7.70;99.90
13229;DHT22;6680;53.220;10.402;2023-04-01T12:02:23;7.70;99.90
13229;DHT22;6680;53.220;10.402;2023-04-01T12:05:01;7.80;99.90
13229;DHT22;6680;53.220;10.402;2023-04-01T12:07:49;7.70;99.90
13229;DHT22;6680;53.220;10.402;2023-04-01T12:10:21;7.70;99.90
13229;DHT22;6680;53.220;10.402;2023-04-01T12:13:02;7.60;99.90
13229;DHT22;6680;53.220;10.402;2023-04-01T12:15:36;7.60;99.90
13229;DHT22;6680;53.220;10.402;2023-04-01T12:18:15;7.50;99.90
13229;DHT22;6680;53.220;10.402;2023-04-01T12:20:49;7.50;99.90
13229;DHT22;6680;53.220;10.402;2023-04-01T12:23:37;7.40;99.90
13229;DHT22;6680;53.220;10.402;2023-04-01T12:26:37;7.40;99.90
13229;DHT22;6680;53.220;10.402;2023-04-01T12:29:21;7.40;99.90
13229;DHT22;6680;53.220;10.402;2023-04-01T12:31:55;7.30;99.90
13229;DHT22;6680;53.220;10.402;2023-04-01T12:37:24;7.40;99.90
13229;DHT22;6680;53.220;10.402;2023-04-01T12:40:17;7.40;99.90
13229;DHT22;6680;53.220;10.402;2023-04-01T12:42:55;7.30;99.90
13229;DHT22;6680;53.220;10.402;2023-04-01T12:45:31;7.30;99.90
13229;DHT22;6680;53.220;10.402;2023-04-01T12:48:41;7.30;99.90
13229;DHT22;6680;53.220;10.402;2023-04-01T12:51:29;7.20;99.90
13229;DHT22;6680;53.220;10.402;2023-04-01T12:54:44;7.20;99.90
13229;DHT22;6680;53.220;10.402;2023-04-01T12:57:29;7.20;99.90
13229;DHT22;6680;53.220;10.402;2023-04-01T13:00:12;7.30;99.90
13229;DHT22;6680;53.220;10.402;2023-04-01T13:02:49;7.30;99.90
13229;DHT22;6680;53.220;10.402;2023-04-01T13:05:44;7.30;99.90
13229;DHT22;6680;53.220;10.402;2023-04-01T13:08:32;7.30;99.90
13229;DHT22;6680;53.220;10.402;2023-04-01T13:11:09;7.10;99.90
13229;DHT22;6680;53.220;10.402;2023-04-01T13:16:49;7.10;99.90
13229;DHT22;6680;53.220;10.402;2023-04-01T13:19:25;7.00;99.90
13229;DHT22;6680;53.220;10.402;2023-04-01T13:22:00;6.90;99.90
13229;DHT22;6680;53.220;10.402;2023-04-01T13:24:37;6.90;99.90
13229;DHT22;6680;53.220;10.402;2023-04-01T13:27:11;6.80;99.90
13229;DHT22;6680;53.220;10.402;2023-04-01T13:29:45;6.80;99.90
13229;DHT22;6680;53.220;10.402;2023-04-01T13:32:23;6.80;99.90
13229;DHT22;6680;53.220;10.402;2023-04-01T13:35:03;6.70;99.90
13229;DHT22;6680;53.220;10.402;2023-04-01T13:37:51;6.80;99.90
13229;DHT22;6680;53.220;10.402;2023-04-01T13:40:39;6.80;99.90
13229;DHT22;6680;53.220;10.402;2023-04-01T13:43:14;6.70;99.90
13229;DHT22;6680;53.220;10.402;2023-04-01T13:46:04;6.60;99.90
13229;DHT22;6680;53.220;10.402;2023-04-01T13:48:50;6.50;99.90
13229;DHT22;6680;53.220;10.402;2023-04-01T13:51:39;6.50;99.90
13229;DHT22;6680;53.220;10.402;2023-04-01T13:57:19;6.50;99.90
13229;DHT22;6680;53.220;10.402;2023-04-01T13:59:59;6.40;99.90
13229;DHT22;6680;53.220;10.402;2023-04-01T14:02:50;6.40;99.90
13229;DHT22;6680;53.220;10.402;2023-04-01T14:05:43;6.40;99.90
13229;DHT22;6680;53.220;10.402;2023-04-01T14:08:20;6.40;99.90
13229;DHT22;6680;53.220;10.402;2023-04-01T14:11:03;6.40;99.90
13229;DHT22;6680;53.220;10.402;2023-04-01T14:13:39;6.40;99.90
13229;DHT22;6680;53.220;10.402;2023-04-01T14:16:39;6.40;99.90
13229;DHT22;6680;53.220;10.402;2023-04-01T14:19:25;6.30;99.90
13229;DHT22;6680;53.220;10.402;2023-04-01T14:21:59;6.40;99.90
13229;DHT22;6680;53.220;10.402;2023-04-01T14:24:46;6.30;99.90
13229;DHT22;6680;53.220;10.402;2023-04-01T14:27:36;6.20;99.90
13229;DHT22;6680;53.220;10.402;2023-04-01T14:30:40;6.20;99.90
13229;DHT22;6680;53.220;10.402;2023-04-01T14:33:22;6.20;99.90
13229;DHT22;6680;53.220;10.402;2023-04-01T14:36:01;6.20;99.90
13229;DHT22;6680;53.220;10.402;2023-04-01T14:38:51;6.70;99.90
13229;DHT22;6680;53.220;10.402;2023-04-01T14:41:34;6.10;99.90
13229;DHT22;6680;53.220;10.402;2023-04-01T14:44:22;6.10;99.90
13229;DHT22;6680;53.220;10.402;2023-04-01T14:47:15;6.10;99.90
13229;DHT22;6680;53.220;10.402;2023-04-01T14:49:52;6.10;99.90
13229;DHT22;6680;53.220;10.402;2023-04-01T14:52:24;6.00;99.90
13229;DHT22;6680;53.220;10.402;2023-04-01T14:54:54;5.90;99.90
13229;DHT22;6680;53.220;10.402;2023-04-01T14:57:24;5.80;99.90
13229;DHT22;6680;53.220;10.402;2023-04-01T14:59:53;5.80;99.90
13229;DHT22;6680;53.220;10.402;2023-04-01T15:02:38;5.80;99.90
13229;DHT22;6680;53.220;10.402;2023-04-01T15:05:27;5.70;99.90
13229;DHT22;6680;53.220;10.402;2023-04-01T15:08:05;5.80;99.90
13229;DHT22;6680;53.220;10.402;2023-04-01T15:16:39;5.70;99.90
13229;DHT22;6680;53.220;10.402;2023-04-01T15:19:14;5.70;99.90
13229;DHT22;6680;53.220;10.402;2023-04-01T15:21:52;5.60;99.90
13229;DHT22;6680;53.220;10.402;2023-04-01T15:24:23;5.60;99.90
13229;DHT22;6680;53.220;10.402;2023-04-01T15:30:00;5.60;99.90
13229;DHT22;6680;53.220;10.402;2023-04-01T15:32:42;5.60;99.90
13229;DHT22;6680;53.220;10.402;2023-04-01T15:35:19;5.60;99.90
13229;DHT22;6680;53.220;10.402;2023-04-01T15:37:54;5.60;99.90
13229;DHT22;6680;53.220;10.402;2023-04-01T15:40:24;5.70;99.90
13229;DHT22;6680;53.220;10.402;2023-04-01T15:43:06;5.70;99.90
13229;DHT22;6680;53.220;10.402;2023-04-01T15:45:42;5.70;99.90
13229;DHT22;6680;53.220;10.402;2023-04-01T15:48:27;5.70;99.90
13229;DHT22;6680;53.220;10.402;2023-04-01T15:51:05;5.70;99.90
13229;DHT22;6680;53.220;10.402;2023-04-01T15:54:01;5.70;99.90
13229;DHT22;6680;53.220;10.402;2023-04-01T15:56:48;5.60;99.90
13229;DHT22;6680;53.220;10.402;2023-04-01T15:59:36;5.60;99.90
13229;DHT22;6680;53.220;10.402;2023-04-01T16:02:13;5.60;99.90
13229;DHT22;6680;53.220;10.402;2023-04-01T16:04:49;5.60;99.90
13229;DHT22;6680;53.220;10.402;2023-04-01T16:07:40;5.60;99.90
13229;DHT22;6680;53.220;10.402;2023-04-01T16:10:27;5.70;99.90
13229;DHT22;6680;53.220;10.402;2023-04-01T16:13:03;5.60;99.90
13229;DHT22;6680;53.220;10.402;2023-04-01T16:15:43;5.60;99.90
13229;DHT22;6680;53.220;10.402;2023-04-01T16:18:23;5.60;99.90
13229;DHT22;6680;53.220;10.402;2023-04-01T16:20:59;5.60;99.90
13229;DHT22;6680;53.220;10.402;2023-04-01T16:23:33;5.50;99.90
13229;DHT22;6680;53.220;10.402;2023-04-01T16:26:07;5.60;99.90
13229;DHT22;6680;53.220;10.402;2023-04-01T16:28:39;5.70;99.90
13229;DHT22;6680;53.220;10.402;2023-04-01T16:31:13;5.50;99.90
13229;DHT22;6680;53.220;10.402;2023-04-01T16:33:49;5.50;99.90
13229;DHT22;6680;53.220;10.402;2023-04-01T16:36:24;5.50;99.90
13229;DHT22;6680;53.220;10.402;2023-04-01T16:39:02;5.50;99.90
13229;DHT22;6680;53.220;10.402;2023-04-01T16:41:35;5.50;99.90
13229;DHT22;6680;53.220;10.402;2023-04-01T16:44:14;5.50;99.90
13229;DHT22;6680;53.220;10.402;2023-04-01T16:46:46;5.40;99.90
13229;DHT22;6680;53.220;10.402;2023-04-01T16:49:24;5.40;99.90
13229;DHT22;6680;53.220;10.402;2023-04-01T16:51:54;5.40;99.90
13229;DHT22;6680;53.220;10.402;2023-04-01T16:54:28;5.30;99.90
13229;DHT22;6680;53.220;10.402;2023-04-01T16:57:11;5.20;99.90
13229;DHT22;6680;53.220;10.402;2023-04-01T16:59:46;5.20;99.90
13229;DHT22;6680;53.220;10.402;2023-04-01T17:02:15;6.70;99.90
13229;DHT22;6680;53.220;10.402;2023-04-01T17:04:45;5.10;99.90
13229;DHT22;6680;53.220;10.402;2023-04-01T17:07:24;5.00;99.90
13229;DHT22;6680;53.220;10.402;2023-04-01T17:10:13;5.00;99.90
13229;DHT22;6680;53.220;10.402;2023-04-01T17:12:50;5.00;99.90
13229;DHT22;6680;53.220;10.402;2023-04-01T17:15:29;5.00;99.90
13229;DHT22;6680;53.220;10.402;2023-04-01T17:18:02;4.90;99.90
13229;DHT22;6680;53.220;10.402;2023-04-01T17:20:39;4.90;99.90
13229;DHT22;6680;53.220;10.402;2023-04-01T17:23:14;4.90;99.90
13229;DHT22;6680;53.220;10.402;2023-04-01T17:25:54;4.70;99.90
13229;DHT22;6680;53.220;10.402;2023-04-01T17:28:37;4.70;99.90
13229;DHT22;6680;53.220;10.402;2023-04-01T17:31:17;4.70;99.90
13229;DHT22;6680;53.220;10.402;2023-04-01T17:33:53;4.70;99.90
13229;DHT22;6680;53.220;10.402;2023-04-01T17:36:31;4.60;99.90
13229;DHT22;6680;53.220;10.402;2023-04-01T17:39:14;4.60;99.90
13229;DHT22;6680;53.220;10.402;2023-04-01T17:41:47;4.60;99.90
13229;DHT22;6680;53.220;10.402;2023-04-01T17:44:25;4.50;99.90
13229;DHT22;6680;53.220;10.402;2023-04-01T17:49:47;4.50;99.90
13229;DHT22;6680;53.220;10.402;2023-04-01T17:52:19;4.50;99.90
13229;DHT22;6680;53.220;10.402;2023-04-01T17:54:55;4.40;99.90
13229;DHT22;6680;53.220;10.402;2023-04-01T17:57:34;4.50;99.90